Time;durP1;ratioP1;P1;durP2;ratioP2;P2;SDS_P1;SDS_P2;PMS_P1;PMS_P2;Temp;Humidity;BMP_temperature;BMP_pressure;BME280_temperature;BME280_humidity;BME280_pressure;Samples;Min_cycle;Max_cycle;Signal;HPM_P1;HPM_P2
2023/04/20 00:02:16;;;;;;;61.10;24.52;;;7.20;85.30;;;;;;4799672;29;20050;-87
2023/04/20 00:04:43;;;;;;;74.40;26.33;;;7.30;85.10;;;;;;4800155;29;20133;-86
2023/04/20 00:07:10;;;;;;;70.90;26.20;;;7.30;85.00;;;;;;4818530;29;20107;-86
2023/04/20 00:09:37;;;;;;;63.65;24.35;;;7.40;85.10;;;;;;4812530;29;20046;-86
2023/04/20 00:12:04;;;;;;;58.63;22.45;;;7.40;84.90;;;;;;4797270;29;20047;-86
2023/04/20 00:14:31;;;;;;;70.78;24.95;;;7.50;84.80;;;;;;4798529;29;20050;-86
2023/04/20 00:16:58;;;;;;;74.97;25.73;;;7.50;84.60;;;;;;4808415;29;20078;-86
2023/04/20 00:19:27;;;;;;;58.27;22.23;;;7.50;84.70;;;;;;4817994;29;20046;-86
2023/04/20 00:21:54;;;;;;;61.50;23.40;;;7.40;84.80;;;;;;4814166;29;20089;-86
2023/04/20 00:24:21;;;;;;;65.60;25.17;;;7.40;84.80;;;;;;4818321;29;20046;-86
2023/04/20 00:26:48;;;;;;;62.67;23.35;;;7.40;84.90;;;;;;4812256;29;20052;-86
2023/04/20 00:29:15;;;;;;;87.85;24.75;;;7.50;84.80;;;;;;4814951;29;20068;-86
2023/04/20 00:31:43;;;;;;;69.40;23.63;;;7.50;84.90;;;;;;4799364;29;20042;-86
2023/04/20 00:34:12;;;;;;;65.07;24.02;;;7.50;84.80;;;;;;4812134;29;20121;-86
2023/04/20 00:36:39;;;;;;;69.63;24.83;;;7.50;84.80;;;;;;4815449;29;20525;-86
2023/04/20 00:39:06;;;;;;;65.88;23.98;;;7.50;84.70;;;;;;4817499;29;20046;-86
2023/04/20 00:41:33;;;;;;;83.30;23.38;;;7.50;84.80;;;;;;4813813;29;20046;-86
2023/04/20 00:44:00;;;;;;;70.83;22.97;;;7.40;85.10;;;;;;4813817;29;20494;-86
2023/04/20 00:46:27;;;;;;;62.80;23.67;;;7.40;85.00;;;;;;4798503;29;20070;-86
2023/04/20 00:48:56;;;;;;;69.32;22.65;;;7.50;84.90;;;;;;4802628;29;20110;-86
2023/04/20 00:51:23;;;;;;;67.10;23.85;;;7.50;84.70;;;;;;4815522;29;20051;-86
2023/04/20 00:53:50;;;;;;;80.65;24.40;;;7.50;84.80;;;;;;4795094;29;20082;-86
2023/04/20 00:56:18;;;;;;;58.63;22.07;;;7.60;84.70;;;;;;4812319;29;20104;-86
2023/04/20 00:58:45;;;;;;;78.25;25.73;;;7.60;84.60;;;;;;4816289;29;20058;-86
2023/04/20 01:01:16;;;;;;;92.57;25.27;;;7.60;84.60;;;;;;4814675;29;20107;-86
2023/04/20 01:03:45;;;;;;;120.68;27.88;;;7.70;84.60;;;;;;4814967;29;20047;-87
2023/04/20 01:06:13;;;;;;;108.07;28.10;;;7.70;84.60;;;;;;4813593;29;20142;-86
2023/04/20 01:08:49;;;;;;;102.37;27.93;;;7.50;84.90;;;;;;4815756;29;20077;-86
2023/04/20 01:11:16;;;;;;;86.72;26.88;;;7.50;85.20;;;;;;4812593;29;20052;-88
2023/04/20 01:13:44;;;;;;;70.30;24.65;;;7.50;85.30;;;;;;4814164;29;20100;-89
2023/04/20 01:16:11;;;;;;;82.22;26.33;;;7.50;85.50;;;;;;4802597;29;20142;-88
2023/04/20 01:18:47;;;;;;;78.80;27.63;;;7.50;85.30;;;;;;4814551;29;20125;-89
2023/04/20 01:21:17;;;;;;;91.83;25.33;;;7.50;85.30;;;;;;4812186;29;20498;-88
2023/04/20 01:23:45;;;;;;;60.78;24.15;;;7.50;85.20;;;;;;4797484;29;20089;-88
2023/04/20 01:26:14;;;;;;;197.35;32.00;;;7.50;85.10;;;;;;4813953;29;20047;-89
2023/04/20 01:28:42;;;;;;;105.55;26.52;;;7.50;85.20;;;;;;4799721;29;20054;-89
2023/04/20 01:31:11;;;;;;;125.65;28.02;;;7.50;85.40;;;;;;4814566;29;20043;-88
2023/04/20 01:33:38;;;;;;;86.27;25.70;;;7.50;85.30;;;;;;4796869;29;20061;-89
2023/04/20 01:36:06;;;;;;;131.65;25.67;;;7.50;85.20;;;;;;4815268;29;20103;-88
2023/04/20 01:38:34;;;;;;;140.50;29.05;;;7.60;85.20;;;;;;4812552;29;20057;-88
2023/04/20 01:41:03;;;;;;;184.20;32.03;;;7.60;85.20;;;;;;4817978;29;20116;-88
2023/04/20 01:43:31;;;;;;;110.43;27.85;;;7.60;85.20;;;;;;4816834;29;20042;-88
2023/04/20 01:45:59;;;;;;;127.63;29.77;;;7.60;85.10;;;;;;4815047;29;20058;-88
2023/04/20 01:48:27;;;;;;;110.50;26.60;;;7.60;85.10;;;;;;4810993;29;20066;-88
2023/04/20 01:50:54;;;;;;;73.40;24.08;;;7.60;85.20;;;;;;4797889;29;20070;-88
2023/04/20 01:53:22;;;;;;;146.13;29.65;;;7.60;85.40;;;;;;4796716;29;20061;-88
2023/04/20 01:55:49;;;;;;;110.18;28.55;;;7.60;85.30;;;;;;4815183;29;20063;-88
2023/04/20 01:58:16;;;;;;;100.83;28.00;;;7.70;85.30;;;;;;4815957;29;20102;-88
2023/04/20 02:00:43;;;;;;;128.30;30.42;;;7.70;85.20;;;;;;4798206;29;20050;-88
2023/04/20 02:03:10;;;;;;;82.45;27.02;;;7.70;85.20;;;;;;4811369;29;20129;-89
2023/04/20 02:05:38;;;;;;;99.13;28.60;;;7.70;85.20;;;;;;4815349;29;20081;-88
2023/04/20 02:08:05;;;;;;;146.85;30.92;;;7.70;85.20;;;;;;4813849;29;20043;-88
2023/04/20 02:10:32;;;;;;;84.93;26.73;;;7.70;85.30;;;;;;4814697;29;20489;-88
2023/04/20 02:12:58;;;;;;;113.00;27.20;;;7.70;85.10;;;;;;4797602;29;20057;-88
2023/04/20 02:15:25;;;;;;;126.25;28.00;;;7.80;85.00;;;;;;4798037;29;20062;-89
2023/04/20 02:17:53;;;;;;;101.43;28.65;;;7.80;84.90;;;;;;4815368;29;20047;-88
2023/04/20 02:20:20;;;;;;;127.22;29.05;;;7.80;85.00;;;;;;4799665;29;20112;-89
2023/04/20 02:22:47;;;;;;;114.50;29.10;;;7.80;85.00;;;;;;4810430;29;20138;-89
2023/04/20 02:25:14;;;;;;;104.72;27.17;;;7.80;85.10;;;;;;4819799;29;20070;-89
2023/04/20 02:27:42;;;;;;;99.75;27.33;;;7.90;85.20;;;;;;4799011;29;20057;-89
2023/04/20 02:30:11;;;;;;;121.20;28.00;;;7.80;85.30;;;;;;4813842;29;20126;-89
2023/04/20 02:32:41;;;;;;;135.65;29.20;;;7.80;85.30;;;;;;4813700;29;20519;-86
2023/04/20 02:35:08;;;;;;;94.93;26.77;;;7.70;85.50;;;;;;4816779;29;20042;-89
2023/04/20 02:37:35;;;;;;;94.40;26.30;;;7.70;85.50;;;;;;4817108;29;20114;-88
2023/04/20 02:40:04;;;;;;;87.55;27.67;;;7.70;85.60;;;;;;4816345;29;20038;-89
2023/04/20 02:42:31;;;;;;;130.13;27.27;;;7.70;85.60;;;;;;4814985;29;20500;-88
2023/04/20 02:45:00;;;;;;;104.30;27.15;;;7.80;85.50;;;;;;4816396;29;20046;-88
2023/04/20 02:47:27;;;;;;;82.73;27.43;;;7.80;85.40;;;;;;4798084;29;20141;-88
2023/04/20 02:49:55;;;;;;;76.65;24.85;;;7.80;85.30;;;;;;4815236;29;20080;-88
2023/04/20 02:52:23;;;;;;;107.35;28.58;;;7.90;85.20;;;;;;4813320;29;20046;-88
2023/04/20 02:54:50;;;;;;;82.72;26.98;;;7.90;85.30;;;;;;4805109;29;20055;-88
2023/04/20 02:57:17;;;;;;;144.10;29.95;;;7.90;85.30;;;;;;4815817;29;20051;-88
2023/04/20 02:59:44;;;;;;;93.67;28.23;;;7.90;85.10;;;;;;4802238;29;20050;-88
2023/04/20 03:02:25;;;;;;;105.63;30.15;;;8.00;84.90;;;;;;4811587;29;20049;-89
2023/04/20 03:04:53;;;;;;;125.07;29.35;;;8.00;84.90;;;;;;4811521;29;20057;-88
2023/04/20 03:07:21;;;;;;;96.07;29.25;;;8.00;85.00;;;;;;4817386;29;20050;-88
2023/04/20 03:09:48;;;;;;;116.70;28.90;;;8.00;85.10;;;;;;4821155;29;20133;-88
2023/04/20 03:12:26;;;;;;;80.13;25.73;;;8.00;85.10;;;;;;4812128;29;20493;-89
2023/04/20 03:15:00;;;;;;;88.72;25.52;;;8.00;85.10;;;;;;4812135;29;20516;-88
2023/04/20 03:17:43;;;;;;;92.82;27.80;;;8.00;85.10;;;;;;4813039;29;20107;-88
2023/04/20 03:20:11;;;;;;;125.78;26.95;;;8.00;85.10;;;;;;4814385;29;20387;-89
2023/04/20 03:22:38;;;;;;;131.90;27.40;;;8.00;85.00;;;;;;4799703;29;20047;-88
2023/04/20 03:25:06;;;;;;;92.33;26.03;;;8.00;84.80;;;;;;4810956;29;20107;-89
2023/04/20 03:27:55;;;;;;;84.65;27.48;;;7.90;84.90;;;;;;4812459;29;20049;-88
2023/04/20 03:30:23;;;;;;;87.57;27.13;;;7.90;85.10;;;;;;4824628;29;20077;-90
2023/04/20 03:33:10;;;;;;;125.63;28.05;;;7.90;85.10;;;;;;4838577;29;20134;-88
2023/04/20 03:35:38;;;;;;;108.72;28.08;;;8.00;85.00;;;;;;4815058;29;20072;-88
2023/04/20 03:38:05;;;;;;;97.77;28.23;;;8.00;85.00;;;;;;4812536;29;20057;-88
2023/04/20 03:40:32;;;;;;;92.40;27.90;;;8.00;85.00;;;;;;4803066;29;20382;-88
2023/04/20 03:42:59;;;;;;;104.53;31.55;;;8.00;85.00;;;;;;4804703;29;20104;-88
2023/04/20 03:45:27;;;;;;;126.80;32.15;;;8.00;85.00;;;;;;4813143;29;20104;-88
2023/04/20 03:47:54;;;;;;;96.50;30.13;;;8.00;85.00;;;;;;4803768;29;20050;-88
2023/04/20 03:50:21;;;;;;;111.13;28.93;;;8.00;85.00;;;;;;4814756;29;20047;-89
2023/04/20 03:52:48;;;;;;;112.90;30.25;;;8.00;85.00;;;;;;4818494;29;20065;-89
2023/04/20 03:55:15;;;;;;;111.80;29.20;;;8.00;85.00;;;;;;4793361;29;20058;-89
2023/04/20 03:57:48;;;;;;;86.60;26.00;;;8.10;85.00;;;;;;4807166;29;20091;-88
2023/04/20 04:00:15;;;;;;;143.93;29.58;;;8.10;85.00;;;;;;4809613;29;20057;-89
2023/04/20 04:02:45;;;;;;;106.80;29.23;;;8.10;84.90;;;;;;4832263;29;20075;-89
2023/04/20 04:05:17;;;;;;;116.00;30.85;;;8.00;85.00;;;;;;4809755;29;20050;-90
2023/04/20 04:07:47;;;;;;;128.55;31.20;;;8.00;85.00;;;;;;4818822;29;20081;-89
2023/04/20 04:10:17;;;;;;;168.93;35.88;;;8.00;85.40;;;;;;4819625;29;20069;-89
2023/04/20 04:12:45;;;;;;;180.05;35.85;;;7.90;85.80;;;;;;4811455;29;20097;-90
2023/04/20 04:15:12;;;;;;;143.20;33.43;;;7.90;86.00;;;;;;4802961;29;20451;-89
2023/04/20 04:17:48;;;;;;;150.77;32.97;;;7.80;86.30;;;;;;4823023;29;20051;-90
2023/04/20 04:20:15;;;;;;;151.82;32.67;;;7.80;86.50;;;;;;4825594;29;20098;-89
2023/04/20 04:22:42;;;;;;;215.15;36.30;;;7.80;86.60;;;;;;4811861;29;20051;-90
2023/04/20 04:25:45;;;;;;;215.40;35.30;;;7.70;86.60;;;;;;4789762;29;20125;-90
2023/04/20 04:28:13;;;;;;;236.00;38.00;;;7.70;86.80;;;;;;4812215;29;20051;-90
2023/04/20 04:31:05;;;;;;;189.63;34.63;;;7.70;87.00;;;;;;4788682;30;20055;-89
2023/04/20 04:33:33;;;;;;;159.40;34.92;;;7.70;87.10;;;;;;4800014;29;20629;-89
2023/04/20 04:36:01;;;;;;;178.32;35.15;;;7.60;87.20;;;;;;4812960;29;20039;-90
2023/04/20 04:38:32;;;;;;;282.52;39.60;;;7.60;87.50;;;;;;4799303;29;20051;-89
2023/04/20 04:40:59;;;;;;;183.13;34.77;;;7.60;87.70;;;;;;4800019;29;20060;-89
2023/04/20 04:43:28;;;;;;;159.40;34.72;;;7.60;87.70;;;;;;4812518;29;20049;-89
2023/04/20 04:46:14;;;;;;;140.05;33.13;;;7.70;87.80;;;;;;4812655;29;20076;-90
2023/04/20 04:48:42;;;;;;;123.38;32.67;;;7.70;87.50;;;;;;4810956;29;20058;-90
2023/04/20 04:51:09;;;;;;;144.75;33.33;;;7.90;87.50;;;;;;4817814;29;20048;-89
2023/04/20 04:53:36;;;;;;;131.60;31.13;;;8.00;87.30;;;;;;4820541;29;20178;-90
2023/04/20 04:56:05;;;;;;;138.45;31.77;;;8.00;87.10;;;;;;4818904;29;20050;-90
2023/04/20 04:58:32;;;;;;;148.48;34.92;;;8.10;86.80;;;;;;4803257;29;20544;-91
2023/04/20 05:00:59;;;;;;;119.60;29.92;;;8.20;86.70;;;;;;4811998;29;20054;-90
2023/04/20 05:03:26;;;;;;;151.43;33.30;;;8.10;86.60;;;;;;4807653;29;20529;-90
2023/04/20 05:05:53;;;;;;;117.57;32.03;;;8.20;86.70;;;;;;4808262;29;20051;-90
2023/04/20 05:08:23;;;;;;;126.07;32.70;;;8.10;86.70;;;;;;4816888;29;20054;-90
2023/04/20 05:10:50;;;;;;;121.20;33.22;;;8.20;86.60;;;;;;4806198;29;20058;-90
2023/04/20 05:13:17;;;;;;;136.40;34.35;;;8.20;86.50;;;;;;4801638;29;20071;-90
2023/04/20 05:15:44;;;;;;;118.20;32.10;;;8.10;86.60;;;;;;4773911;30;20051;-90
2023/04/20 05:18:11;;;;;;;103.37;29.33;;;8.10;86.50;;;;;;4811263;29;20390;-89
2023/04/20 05:20:38;;;;;;;104.40;31.67;;;8.10;86.30;;;;;;4813911;29;20046;-89
2023/04/20 05:23:05;;;;;;;107.47;32.03;;;8.10;86.30;;;;;;4788086;29;20071;-90
2023/04/20 05:25:32;;;;;;;108.47;30.73;;;8.10;86.40;;;;;;4776564;29;20112;-89
2023/04/20 05:27:59;;;;;;;105.75;30.60;;;8.10;86.60;;;;;;4816981;29;20043;-90
2023/04/20 05:30:26;;;;;;;108.40;32.33;;;8.20;86.50;;;;;;4804904;29;20042;-90
2023/04/20 05:32:53;;;;;;;111.80;31.13;;;8.20;86.50;;;;;;4797131;29;20082;-90
2023/04/20 05:35:20;;;;;;;102.18;29.35;;;8.20;86.30;;;;;;4823738;29;20051;-91
2023/04/20 05:37:47;;;;;;;93.55;29.30;;;8.20;85.90;;;;;;4799418;29;20043;-90
2023/04/20 05:40:14;;;;;;;112.03;30.75;;;8.30;85.90;;;;;;4800257;29;20526;-90
2023/04/20 05:42:42;;;;;;;100.30;28.90;;;8.20;85.70;;;;;;4822367;29;20565;-89
2023/04/20 05:45:09;;;;;;;83.40;26.65;;;8.30;85.80;;;;;;4798669;29;20490;-89
2023/04/20 05:47:37;;;;;;;92.43;28.42;;;8.30;85.60;;;;;;4804418;29;20051;-89
2023/04/20 05:50:04;;;;;;;87.35;28.58;;;8.20;85.60;;;;;;4812592;29;20077;-90
2023/04/20 05:52:31;;;;;;;94.93;28.83;;;8.30;85.70;;;;;;4815954;29;20054;-90
2023/04/20 05:54:58;;;;;;;109.43;30.33;;;8.30;85.80;;;;;;4814759;29;20058;-90
2023/04/20 05:57:26;;;;;;;97.93;28.83;;;8.30;86.20;;;;;;4814857;29;20133;-90
2023/04/20 05:59:54;;;;;;;91.13;29.80;;;8.40;86.30;;;;;;4800723;29;20043;-90
2023/04/20 06:02:21;;;;;;;95.65;30.15;;;8.40;86.30;;;;;;4823963;29;20053;-90
2023/04/20 06:04:49;;;;;;;84.90;26.17;;;8.40;86.50;;;;;;4810449;29;20042;-90
2023/04/20 06:07:16;;;;;;;92.07;28.50;;;8.50;85.70;;;;;;4809356;29;20098;-90
2023/04/20 06:09:43;;;;;;;88.88;28.25;;;8.50;85.70;;;;;;4794697;29;20103;-91
2023/04/20 06:12:10;;;;;;;90.70;27.23;;;8.50;85.70;;;;;;4809663;29;20475;-90
2023/04/20 06:14:37;;;;;;;80.75;27.83;;;8.50;85.60;;;;;;4794785;29;20086;-91
2023/04/20 06:17:04;;;;;;;84.53;28.58;;;8.50;85.40;;;;;;4810278;29;20047;-91
2023/04/20 06:19:32;;;;;;;78.37;26.27;;;8.50;85.30;;;;;;4820029;29;20174;-87
2023/04/20 06:21:59;;;;;;;79.00;27.35;;;8.50;85.30;;;;;;4808970;29;20068;-87
2023/04/20 06:24:27;;;;;;;82.82;26.27;;;8.60;85.00;;;;;;4832239;29;20050;-87
2023/04/20 06:26:54;;;;;;;69.55;23.98;;;8.70;85.40;;;;;;4814969;29;20047;-87
2023/04/20 06:29:21;;;;;;;72.03;26.52;;;8.80;85.50;;;;;;4802076;29;20505;-88
2023/04/20 06:31:48;;;;;;;69.90;25.77;;;8.90;85.30;;;;;;4816736;29;20086;-87
2023/04/20 06:34:15;;;;;;;66.00;25.35;;;9.00;84.70;;;;;;4821442;29;20425;-89
2023/04/20 06:36:42;;;;;;;70.00;25.88;;;9.00;84.50;;;;;;4816744;29;20047;-89
2023/04/20 06:39:10;;;;;;;59.75;24.65;;;9.10;84.20;;;;;;4831153;29;20160;-87
2023/04/20 06:41:38;;;;;;;59.38;23.70;;;9.10;83.80;;;;;;4808796;29;20072;-86
2023/04/20 06:44:05;;;;;;;62.10;24.03;;;9.20;83.80;;;;;;4817879;29;20116;-86
2023/04/20 06:46:33;;;;;;;61.50;24.42;;;9.20;83.60;;;;;;4816645;29;20082;-88
2023/04/20 06:49:00;;;;;;;66.75;24.73;;;9.20;83.00;;;;;;4804541;29;20065;-87
2023/04/20 06:51:28;;;;;;;68.93;24.77;;;9.10;82.50;;;;;;4816923;29;20078;-87
2023/04/20 06:53:55;;;;;;;69.15;24.70;;;9.10;83.40;;;;;;4817515;29;20391;-88
2023/04/20 06:56:22;;;;;;;66.73;24.50;;;9.00;83.40;;;;;;4816374;29;20050;-88
2023/04/20 06:58:49;;;;;;;67.38;27.08;;;9.00;83.80;;;;;;4795175;29;20100;-87
2023/04/20 07:01:16;;;;;;;69.95;27.27;;;9.00;84.30;;;;;;4816921;29;20129;-88
2023/04/20 07:03:45;;;;;;;77.00;27.13;;;9.10;84.00;;;;;;4812949;29;20035;-87
2023/04/20 07:06:14;;;;;;;63.75;25.55;;;9.10;83.90;;;;;;4816656;29;20061;-88
2023/04/20 07:08:41;;;;;;;61.07;24.07;;;9.20;83.30;;;;;;4796099;29;20050;-87
2023/04/20 07:11:08;;;;;;;58.22;23.88;;;9.30;83.00;;;;;;4798467;29;20054;-86
2023/04/20 07:13:35;;;;;;;53.85;22.73;;;9.30;82.90;;;;;;4813886;29;20142;-87
2023/04/20 07:16:02;;;;;;;54.95;22.13;;;9.50;82.50;;;;;;4818559;29;20098;-87
2023/04/20 07:18:30;;;;;;;52.17;22.30;;;9.60;81.80;;;;;;4813762;29;20117;-87
2023/04/20 07:20:59;;;;;;;52.83;21.90;;;9.80;81.50;;;;;;4818609;29;20046;-89
2023/04/20 07:23:26;;;;;;;51.33;23.13;;;9.90;80.90;;;;;;4815022;29;20150;-89
2023/04/20 07:25:53;;;;;;;51.88;20.85;;;10.10;81.10;;;;;;4810418;29;20050;-89
2023/04/20 07:28:20;;;;;;;53.47;23.45;;;10.00;80.30;;;;;;4821994;29;20134;-89
2023/04/20 07:30:47;;;;;;;52.75;21.45;;;10.10;80.80;;;;;;4801081;29;20111;-90
2023/04/20 07:33:14;;;;;;;58.47;24.57;;;10.10;79.90;;;;;;4822152;29;20057;-88
2023/04/20 07:35:41;;;;;;;53.65;22.00;;;10.20;80.60;;;;;;4823027;29;20058;-90
2023/04/20 07:38:09;;;;;;;45.60;20.70;;;10.20;80.30;;;;;;4807702;29;20205;-89
2023/04/20 07:40:36;;;;;;;56.20;23.60;;;10.20;80.60;;;;;;4817642;29;20081;-90
2023/04/20 07:43:03;;;;;;;48.92;21.92;;;10.50;81.20;;;;;;4811033;29;20054;-87
2023/04/20 07:45:30;;;;;;;49.67;21.43;;;10.60;79.20;;;;;;4817525;29;20297;-86
2023/04/20 07:48:00;;;;;;;50.60;23.30;;;10.80;79.30;;;;;;4807358;29;20154;-90
2023/04/20 07:50:27;;;;;;;45.15;21.48;;;10.80;80.00;;;;;;4799545;29;20042;-88
2023/04/20 07:52:54;;;;;;;43.20;20.48;;;10.80;77.50;;;;;;4809406;29;20043;-87
2023/04/20 07:55:21;;;;;;;50.83;23.77;;;10.60;77.80;;;;;;4814831;29;20077;-87
2023/04/20 07:57:49;;;;;;;50.10;21.53;;;10.50;79.60;;;;;;4805126;29;20080;-87
2023/04/20 08:00:17;;;;;;;49.70;21.52;;;10.50;79.30;;;;;;4821235;29;20050;-86
2023/04/20 08:02:44;;;;;;;46.70;22.75;;;10.40;79.00;;;;;;4817744;29;21215;-86
2023/04/20 08:05:11;;;;;;;49.80;22.67;;;10.50;79.20;;;;;;4802169;29;20106;-87
2023/04/20 08:07:39;;;;;;;46.05;22.40;;;10.50;78.80;;;;;;4830085;29;20054;-87
2023/04/20 08:10:07;;;;;;;50.10;22.87;;;10.50;79.40;;;;;;4817996;29;20140;-85
2023/04/20 08:12:34;;;;;;;53.55;23.88;;;10.50;79.20;;;;;;4800684;29;20141;-85
2023/04/20 08:15:05;;;;;;;60.80;27.00;;;10.50;79.50;;;;;;4817847;29;20104;-85
2023/04/20 08:17:33;;;;;;;58.30;25.17;;;10.50;80.00;;;;;;4802030;29;20103;-86
2023/04/20 08:20:00;;;;;;;57.38;27.13;;;10.40;79.70;;;;;;4830867;29;20059;-87
2023/04/20 08:22:28;;;;;;;64.60;26.97;;;10.30;79.80;;;;;;4806044;29;20049;-85
2023/04/20 08:24:57;;;;;;;62.17;28.08;;;10.30;80.10;;;;;;4812332;29;20057;-86
2023/04/20 08:27:24;;;;;;;51.63;25.02;;;10.30;80.30;;;;;;4816581;29;20129;-86
2023/04/20 08:29:51;;;;;;;49.22;24.52;;;10.40;80.30;;;;;;4818726;29;20050;-88
2023/04/20 08:32:22;;;;;;;52.67;23.33;;;10.50;79.40;;;;;;4806376;29;20142;-87
2023/04/20 08:34:49;;;;;;;49.30;23.37;;;10.50;80.00;;;;;;4818465;29;20064;-87
2023/04/20 08:37:16;;;;;;;42.40;20.88;;;10.70;80.00;;;;;;4817463;29;20136;-87
2023/04/20 08:39:43;;;;;;;46.90;21.17;;;10.70;78.80;;;;;;4820049;29;20046;-87
2023/04/20 08:42:10;;;;;;;44.25;22.38;;;10.80;79.20;;;;;;4809249;29;20480;-87
2023/04/20 08:44:37;;;;;;;44.10;21.38;;;11.00;78.80;;;;;;4808641;29;20489;-87
2023/04/20 08:47:04;;;;;;;46.43;21.97;;;11.00;78.70;;;;;;4818592;29;20758;-87
2023/04/20 08:49:32;;;;;;;46.88;22.17;;;11.00;78.00;;;;;;4821206;29;20054;-86
2023/04/20 08:51:59;;;;;;;46.30;22.15;;;11.00;78.70;;;;;;4819662;29;20087;-87
2023/04/20 08:54:27;;;;;;;43.72;22.75;;;11.10;78.50;;;;;;4801816;29;20072;-86
2023/04/20 08:56:54;;;;;;;45.58;22.98;;;11.10;78.00;;;;;;4796686;29;20100;-87
2023/04/20 08:59:21;;;;;;;39.03;19.13;;;11.20;79.40;;;;;;4814801;29;20046;-87
2023/04/20 09:01:48;;;;;;;45.40;21.35;;;11.20;76.90;;;;;;4824469;29;20081;-87
2023/04/20 09:04:17;;;;;;;38.72;20.75;;;11.20;77.20;;;;;;4820785;29;20050;-87
2023/04/20 09:06:51;;;;;;;37.92;19.98;;;11.30;77.50;;;;;;4817308;29;20049;-86
2023/04/20 09:09:19;;;;;;;39.75;18.92;;;11.20;76.40;;;;;;4814893;29;20531;-87
2023/04/20 09:11:47;;;;;;;37.60;18.47;;;11.20;77.20;;;;;;4816996;29;20138;-87
2023/04/20 09:14:15;;;;;;;35.30;17.45;;;11.20;76.50;;;;;;4818260;29;20046;-87
2023/04/20 09:17:00;;;;;;;32.40;17.42;;;11.30;76.80;;;;;;4816823;29;20049;-87
2023/04/20 09:19:29;;;;;;;34.05;16.83;;;11.50;75.70;;;;;;4815748;29;20169;-87
2023/04/20 09:22:02;;;;;;;30.25;16.45;;;11.50;75.40;;;;;;4815327;29;20053;-87
2023/04/20 09:24:34;;;;;;;37.20;17.87;;;11.50;75.50;;;;;;4802011;29;20064;-87
2023/04/20 09:27:13;;;;;;;33.67;17.15;;;11.50;75.90;;;;;;4817114;29;20042;-87
2023/04/20 09:29:40;;;;;;;34.65;17.50;;;11.40;75.80;;;;;;4813674;29;20050;-86
2023/04/20 09:32:07;;;;;;;30.15;16.20;;;11.50;78.10;;;;;;4812067;29;20057;-87
2023/04/20 09:34:43;;;;;;;29.20;16.00;;;11.40;75.10;;;;;;4836121;29;20061;-86
2023/04/20 09:37:15;;;;;;;29.00;14.87;;;11.40;75.40;;;;;;4817349;29;20050;-87
2023/04/20 09:39:43;;;;;;;27.63;14.57;;;11.50;77.20;;;;;;4820813;29;20046;-86
2023/04/20 09:42:12;;;;;;;28.80;14.65;;;11.50;75.80;;;;;;4823372;29;20078;-87
2023/04/20 09:44:40;;;;;;;27.63;14.85;;;11.50;75.10;;;;;;4817318;29;20648;-87
2023/04/20 09:47:07;;;;;;;30.02;14.27;;;11.50;75.60;;;;;;4821349;29;20086;-87
2023/04/20 09:49:40;;;;;;;32.37;15.97;;;11.80;74.80;;;;;;4822558;29;20058;-86
2023/04/20 09:52:07;;;;;;;27.38;14.75;;;12.00;76.10;;;;;;4818820;29;20046;-87
2023/04/20 09:54:36;;;;;;;25.85;14.18;;;12.40;74.40;;;;;;4797950;29;20085;-89
2023/04/20 09:57:04;;;;;;;26.33;13.82;;;12.50;72.60;;;;;;4819818;29;20501;-89
2023/04/20 09:59:32;;;;;;;25.73;13.63;;;12.60;71.90;;;;;;4818581;29;20046;-89
2023/04/20 10:01:59;;;;;;;27.50;13.77;;;12.50;73.10;;;;;;4819369;29;20064;-89
2023/04/20 10:04:26;;;;;;;26.83;13.25;;;12.50;71.30;;;;;;4799369;29;20050;-89
2023/04/20 10:07:02;;;;;;;26.05;13.13;;;12.50;72.60;;;;;;4818156;29;20058;-90
2023/04/20 10:09:30;;;;;;;26.65;14.90;;;12.50;72.20;;;;;;4821779;29;20126;-89
2023/04/20 10:12:08;;;;;;;28.60;15.77;;;12.80;73.70;;;;;;4816769;29;20091;-89
2023/04/20 10:14:35;;;;;;;25.80;14.77;;;12.80;72.90;;;;;;4819581;29;20049;-89
2023/04/20 10:17:05;;;;;;;28.27;14.80;;;12.70;72.60;;;;;;4818977;29;20067;-89
2023/04/20 10:19:50;;;;;;;27.52;14.15;;;12.50;71.30;;;;;;4816578;29;20107;-89
2023/04/20 10:22:31;;;;;;;25.73;14.02;;;12.60;72.70;;;;;;4818928;29;20058;-89
2023/04/20 10:25:15;;;;;;;24.52;14.00;;;12.60;73.10;;;;;;4814978;29;20140;-89
2023/04/20 10:27:56;;;;;;;23.17;12.37;;;12.70;72.70;;;;;;4825665;29;20111;-89
2023/04/20 10:30:25;;;;;;;22.52;10.98;;;12.90;71.10;;;;;;4834150;29;20192;-89
2023/04/20 10:33:05;;;;;;;23.27;11.98;;;13.00;70.60;;;;;;4802606;29;20053;-89
2023/04/20 10:35:49;;;;;;;24.40;11.65;;;13.20;70.40;;;;;;4820775;29;20058;-89
2023/04/20 10:38:33;;;;;;;22.80;10.90;;;13.10;68.60;;;;;;4820860;29;20417;-89
2023/04/20 10:41:11;;;;;;;22.53;11.40;;;13.20;67.90;;;;;;4823560;29;20057;-89
2023/04/20 10:43:41;;;;;;;22.73;11.02;;;13.10;68.80;;;;;;4820039;29;20124;-88
2023/04/20 10:46:27;;;;;;;20.63;11.70;;;13.10;69.00;;;;;;4824194;29;20099;-89
2023/04/20 10:48:56;;;;;;;24.40;12.48;;;13.10;70.20;;;;;;4803776;29;20045;-89
2023/04/20 10:51:24;;;;;;;22.98;11.23;;;13.20;69.60;;;;;;4821383;29;20054;-89
2023/04/20 10:54:06;;;;;;;24.37;11.60;;;13.20;69.00;;;;;;4800322;29;20058;-89
2023/04/20 10:56:48;;;;;;;23.65;11.95;;;13.30;69.90;;;;;;4817003;29;20054;-86
2023/04/20 10:59:21;;;;;;;25.13;12.35;;;13.30;69.50;;;;;;4808442;29;20532;-89
2023/04/20 11:01:49;;;;;;;22.10;11.07;;;13.20;68.80;;;;;;4818590;29;20046;-89
2023/04/20 11:04:17;;;;;;;21.55;12.07;;;13.20;68.60;;;;;;4796469;29;20042;-89
2023/04/20 11:06:49;;;;;;;22.10;12.23;;;13.20;68.00;;;;;;4818697;29;20050;-89
2023/04/20 11:09:18;;;;;;;22.40;13.43;;;13.30;68.40;;;;;;4816904;29;20053;-88
2023/04/20 11:11:45;;;;;;;21.15;12.60;;;13.40;70.00;;;;;;4829147;29;20058;-89
2023/04/20 11:14:13;;;;;;;22.58;11.50;;;13.50;69.30;;;;;;4819944;29;20083;-88
2023/04/20 11:16:49;;;;;;;23.48;12.27;;;13.60;69.50;;;;;;4814067;29;20058;-88
2023/04/20 11:19:28;;;;;;;22.03;11.87;;;13.70;67.80;;;;;;4820599;29;20087;-89
2023/04/20 11:21:55;;;;;;;22.08;11.70;;;13.90;69.40;;;;;;4793263;29;20058;-89
2023/04/20 11:24:27;;;;;;;20.65;11.00;;;14.10;68.00;;;;;;4823466;29;20492;-89
2023/04/20 11:26:54;;;;;;;20.65;10.18;;;14.10;66.30;;;;;;4818666;29;20508;-89
2023/04/20 11:29:31;;;;;;;19.00;9.88;;;14.00;67.20;;;;;;4821421;29;20050;-89
2023/04/20 11:32:09;;;;;;;24.03;10.43;;;14.00;66.60;;;;;;4823785;29;20050;-89
2023/04/20 11:34:38;;;;;;;18.50;9.60;;;14.10;66.80;;;;;;4812051;29;20063;-89
2023/04/20 11:37:07;;;;;;;21.35;10.57;;;14.00;65.80;;;;;;4796074;29;20075;-89
2023/04/20 11:39:34;;;;;;;18.25;9.82;;;13.90;66.70;;;;;;4827613;29;20046;-88
2023/04/20 11:42:01;;;;;;;19.58;10.50;;;13.80;66.40;;;;;;4819610;29;20045;-88
2023/04/20 11:44:29;;;;;;;16.60;9.37;;;13.90;67.90;;;;;;4817791;29;20080;-88
2023/04/20 11:46:56;;;;;;;19.25;10.30;;;13.90;66.70;;;;;;4802515;29;20046;-88
2023/04/20 11:49:25;;;;;;;18.55;10.50;;;14.00;67.30;;;;;;4816319;29;20050;-88
2023/04/20 11:51:52;;;;;;;17.63;9.73;;;14.10;67.70;;;;;;4797424;29;20046;-88
2023/04/20 11:54:20;;;;;;;16.73;9.07;;;14.20;66.60;;;;;;4823686;29;20077;-89
2023/04/20 11:56:47;;;;;;;15.40;7.77;;;14.50;66.20;;;;;;4802375;29;20118;-88
2023/04/20 11:59:18;;;;;;;15.15;8.32;;;14.50;62.70;;;;;;4807353;29;20049;-88
2023/04/20 12:01:46;;;;;;;17.02;8.73;;;14.50;63.40;;;;;;4812304;29;20053;-89
2023/04/20 12:04:15;;;;;;;14.55;8.27;;;14.60;63.60;;;;;;4792476;29;20403;-89
2023/04/20 12:06:43;;;;;;;15.80;8.98;;;14.90;63.60;;;;;;4815433;29;20107;-88
2023/04/20 12:09:12;;;;;;;14.40;8.50;;;15.00;63.50;;;;;;4811502;29;20049;-88
2023/04/20 12:11:39;;;;;;;15.95;8.93;;;14.80;64.00;;;;;;4825025;29;20050;-89
2023/04/20 12:14:06;;;;;;;23.85;9.20;;;14.70;64.60;;;;;;4812702;29;20103;-88
2023/04/20 12:16:34;;;;;;;16.63;9.02;;;14.60;64.70;;;;;;4823586;29;20520;-88
2023/04/20 12:19:02;;;;;;;18.05;9.27;;;14.50;64.50;;;;;;4800030;29;20073;-88
2023/04/20 12:21:29;;;;;;;14.00;8.23;;;14.40;63.10;;;;;;4800123;29;20145;-88
2023/04/20 12:23:57;;;;;;;14.80;8.80;;;14.40;64.30;;;;;;4799643;29;20138;-89
2023/04/20 12:26:24;;;;;;;15.35;8.15;;;14.50;64.30;;;;;;4820185;29;20046;-88
2023/04/20 12:29:03;;;;;;;16.05;9.23;;;14.60;64.00;;;;;;4800961;29;20057;-88
2023/04/20 12:31:30;;;;;;;15.70;8.35;;;14.80;63.70;;;;;;4802409;29;20560;-89
2023/04/20 12:33:57;;;;;;;19.40;8.57;;;14.70;64.00;;;;;;4815561;29;20046;-88
2023/04/20 12:36:24;;;;;;;18.60;8.88;;;14.80;63.30;;;;;;4805945;29;20128;-89
2023/04/20 12:38:51;;;;;;;16.92;9.10;;;14.70;63.10;;;;;;4810697;29;20129;-89
2023/04/20 12:41:19;;;;;;;15.00;7.93;;;14.70;63.40;;;;;;4797462;29;20513;-89